Mc Connelsville, Ohio
Current Conditions -  °F | °C
As of 2:53 PM on Wednesday 28 Jan 2015 (Local Time) from KZZV Reporting Station
Haze Haze  
Wind Chill: 27°   Ceiling: Unl
Heat Index: 27°   Visibility: 4mi
Dew Point:   Wind: 0mph
Humidity: 45%   Direction: NA
Pressure: 30.33"   Gusts: NA
Location:  39.67°N, 81.8376°W
Report Text: KZZV 281953Z AUTO 00000KT 4SM HZ CLR M03/M13 A3033 RMK AO2 SNB42E52 SLP283 P0000 T10281133
Loading
Personal Weather Stations






























Interactive Weather Map New forecast layout! Learn more

10-Day Weather Forecast

Advertisements
Track Severe Weather on mobile